createdAt,value
2022-10-17T08:21:58.415Z,22.15
2022-10-17T08:24:02.875Z,30.08
2022-10-17T08:26:10.779Z,26.98
2022-10-17T08:28:13.375Z,26.23
2022-10-17T08:30:16.493Z,22.73
2022-10-17T08:32:24.988Z,25.50
2022-10-17T08:34:27.270Z,24.20
2022-10-17T08:36:29.778Z,20.17
2022-10-17T08:38:35.295Z,21.80
2022-10-17T08:40:42.897Z,23.17
2022-10-17T08:42:51.274Z,26.80
2022-10-17T08:45:22.985Z,24.27
2022-10-17T08:47:33.945Z,24.15
2022-10-17T08:49:54.404Z,23.02
2022-10-17T08:52:04.595Z,23.83
2022-10-17T08:54:19.193Z,28.45
2022-10-17T08:56:44.169Z,34.25
2022-10-17T08:58:48.631Z,25.25
2022-10-17T09:01:00.083Z,26.12
2022-10-17T09:03:08.725Z,26.02
2022-10-17T09:05:40.121Z,34.90
2022-10-17T09:07:48.922Z,27.13
2022-10-17T09:10:15.586Z,23.98
2022-10-17T09:12:24.644Z,17.95
2022-10-17T09:14:58.554Z,42.10
2022-10-17T09:17:00.931Z,24.40
2022-10-17T09:19:23.618Z,18.40
2022-10-17T09:21:35.302Z,21.70
2022-10-17T09:24:08.954Z,44.88
2022-10-17T09:26:12.816Z,19.35
2022-10-17T09:28:23.999Z,29.00
2022-10-17T09:30:45.098Z,17.98
2022-10-17T09:32:48.456Z,18.05
2022-10-17T09:34:53.280Z,14.15
2022-10-17T09:36:59.051Z,11.02
2022-10-17T09:39:17.884Z,13.48
2022-10-17T09:41:50.272Z,15.75
2022-10-17T09:43:56.993Z,13.50
2022-10-17T09:46:20.309Z,13.43
2022-10-17T09:48:32.529Z,13.30
2022-10-17T09:50:35.473Z,22.95
2022-10-17T09:52:42.030Z,21.00
2022-10-17T09:54:49.124Z,12.95
2022-10-17T09:56:59.065Z,13.52
2022-10-17T09:59:01.304Z,13.60
2022-10-17T10:01:22.737Z,14.60
2022-10-17T10:03:27.398Z,12.70
2022-10-17T10:05:29.625Z,13.30
2022-10-17T10:07:35.680Z,12.55
2022-10-17T10:09:39.666Z,19.33
2022-10-17T10:11:48.646Z,11.93
2022-10-17T10:13:52.227Z,13.62
2022-10-17T10:16:13.946Z,17.23
2022-10-17T10:18:25.375Z,18.05
2022-10-17T10:20:37.387Z,11.73
2022-10-17T10:22:40.321Z,15.45
2022-10-17T10:24:42.612Z,12.93
2022-10-17T10:26:47.276Z,9.20
2022-10-17T10:28:57.206Z,11.65
2022-10-17T10:31:04.691Z,9.20
2022-10-17T10:33:11.402Z,10.25
2022-10-17T10:35:21.786Z,15.95
2022-10-17T10:37:30.894Z,10.20
2022-10-17T10:39:42.394Z,17.73
2022-10-17T10:41:48.801Z,12.65
2022-10-17T10:43:53.597Z,10.07
2022-10-17T10:45:55.948Z,14.05
2022-10-17T10:47:58.829Z,19.15
2022-10-17T10:50:36.545Z,12.30
2022-10-17T10:52:56.635Z,10.68
2022-10-17T10:55:27.924Z,11.85
2022-10-17T10:57:33.458Z,12.45
2022-10-17T10:59:53.847Z,13.20
2022-10-17T11:01:58.184Z,11.90
2022-10-17T11:04:19.598Z,7.72
2022-10-17T11:06:28.313Z,9.55
2022-10-17T11:08:45.310Z,12.32
2022-10-17T11:11:07.780Z,13.55
2022-10-17T11:13:21.166Z,11.12
2022-10-17T11:15:46.554Z,14.35
2022-10-17T11:18:02.948Z,9.77
2022-10-17T11:20:25.225Z,13.38
2022-10-17T11:22:33.141Z,12.30
2022-10-17T11:24:43.265Z,12.77
2022-10-17T11:26:53.993Z,9.95
2022-10-17T11:29:07.942Z,12.07
2022-10-17T11:31:13.617Z,10.07
2022-10-17T11:33:21.908Z,11.23
2022-10-17T11:35:31.489Z,10.25
2022-10-17T11:37:41.162Z,11.45
2022-10-17T11:40:02.075Z,10.95
2022-10-17T11:42:10.540Z,11.45
2022-10-17T11:44:21.813Z,19.67
2022-10-17T11:46:27.370Z,9.40
2022-10-17T11:48:42.361Z,8.00
2022-10-17T11:53:16.259Z,8.57
2022-10-17T11:55:23.763Z,12.35
2022-10-17T11:57:53.203Z,6.00
2022-10-17T12:00:24.439Z,7.20
2022-10-17T12:02:36.782Z,10.00
2022-10-17T12:05:07.818Z,11.02
2022-10-17T12:07:12.986Z,12.30
2022-10-17T12:09:30.706Z,9.23
2022-10-17T12:11:35.961Z,7.87
2022-10-17T12:13:38.091Z,9.90
2022-10-17T12:15:46.543Z,6.22
2022-10-17T12:17:56.504Z,7.45
2022-10-17T12:20:26.317Z,7.07
2022-10-17T12:22:28.962Z,7.18
2022-10-17T12:24:39.603Z,7.05
2022-10-17T12:26:42.128Z,9.23
2022-10-17T12:28:46.403Z,7.85
2022-10-17T12:30:56.680Z,10.43
2022-10-17T12:33:23.682Z,6.93
2022-10-17T12:35:28.516Z,7.82
2022-10-17T12:37:44.640Z,12.10
2022-10-17T12:39:46.877Z,10.15
2022-10-17T12:41:49.902Z,11.80
2022-10-17T12:43:54.484Z,10.57
2022-10-17T12:46:08.544Z,6.50
2022-10-17T12:48:11.094Z,9.07
2022-10-17T12:51:17.740Z,12.37
2022-10-17T12:53:26.041Z,11.57
2022-10-17T12:55:29.186Z,10.70
2022-10-17T12:57:41.574Z,8.40
2022-10-17T12:59:45.080Z,7.10
2022-10-17T13:01:51.589Z,7.37
2022-10-17T13:03:55.067Z,7.03
2022-10-17T13:06:05.089Z,10.40
2022-10-17T13:08:15.236Z,8.93
2022-10-17T13:10:24.509Z,14.43
2022-10-17T13:12:28.557Z,10.20
2022-10-17T13:14:32.994Z,8.07
2022-10-17T13:16:38.502Z,12.45
2022-10-17T13:18:41.408Z,8.73
2022-10-17T13:20:43.697Z,8.48
2022-10-17T13:22:46.200Z,6.35
2022-10-17T13:24:51.097Z,9.65
2022-10-17T13:26:55.687Z,8.95
2022-10-17T13:29:12.688Z,12.43
2022-10-17T13:31:35.740Z,6.80
2022-10-17T13:33:40.534Z,9.85
2022-10-17T13:35:59.556Z,8.77
2022-10-17T13:38:09.460Z,10.82
2022-10-17T13:40:40.885Z,7.70
2022-10-17T13:42:45.647Z,10.55
2022-10-17T13:44:48.794Z,12.77
2022-10-17T13:46:52.256Z,13.82
2022-10-17T13:48:54.654Z,11.32
2022-10-17T13:51:02.852Z,17.90
2022-10-17T13:53:36.618Z,18.67
2022-10-17T13:55:39.093Z,8.77
2022-10-17T13:57:41.834Z,13.15
2022-10-17T13:59:47.783Z,8.52
2022-10-17T14:01:52.165Z,10.90
2022-10-17T14:04:07.966Z,14.50
2022-10-17T14:06:20.463Z,11.63
2022-10-17T14:08:23.816Z,10.20
2022-10-17T14:10:40.182Z,9.50
2022-10-17T14:12:43.407Z,13.20
2022-10-17T14:15:09.698Z,10.18
2022-10-17T14:17:15.224Z,19.48
2022-10-17T14:19:31.275Z,10.13
2022-10-17T14:21:43.919Z,10.93
2022-10-17T14:23:47.551Z,7.93
2022-10-17T14:26:05.984Z,10.55
2022-10-17T14:28:14.295Z,11.38
2022-10-17T14:30:51.812Z,15.20
2022-10-17T14:32:48.338Z,7.43
2022-10-17T14:35:01.534Z,13.35
2022-10-17T14:37:11.441Z,11.45
2022-10-17T14:39:23.586Z,14.70
2022-10-17T14:41:44.760Z,12.05
2022-10-17T14:44:02.925Z,15.07
2022-10-17T14:46:05.445Z,12.75
2022-10-17T14:48:14.578Z,9.88
2022-10-17T14:50:32.418Z,21.92
2022-10-17T14:52:35.776Z,14.52
2022-10-17T14:54:38.480Z,10.57
2022-10-17T14:56:42.752Z,20.67
2022-10-17T14:58:45.213Z,6.10
2022-10-17T15:00:47.476Z,8.23
2022-10-17T15:02:52.556Z,10.15
2022-10-17T15:04:55.130Z,12.68
2022-10-17T15:06:57.541Z,8.18
2022-10-17T15:09:00.747Z,6.57
2022-10-17T15:11:03.020Z,8.02
2022-10-17T15:15:30.161Z,9.35
2022-10-17T15:17:34.621Z,9.30
2022-10-17T15:19:36.891Z,9.43
2022-10-17T15:21:44.698Z,8.98
2022-10-17T15:23:50.336Z,7.97
2022-10-17T15:25:52.587Z,11.35
2022-10-17T15:27:56.334Z,10.13
2022-10-17T15:29:58.774Z,25.02
2022-10-17T15:32:00.992Z,20.37
2022-10-17T15:34:03.933Z,15.13
2022-10-17T15:36:18.479Z,13.40
2022-10-17T15:38:20.688Z,14.15
2022-10-17T15:40:28.565Z,13.45
2022-10-17T15:42:31.344Z,7.87
2022-10-17T15:44:33.697Z,11.95
2022-10-17T15:46:36.495Z,12.27
2022-10-17T15:48:39.153Z,17.92
2022-10-17T15:50:41.719Z,13.10
2022-10-17T15:52:44.260Z,15.02
2022-10-17T15:54:46.524Z,16.17
2022-10-17T15:56:54.556Z,16.55
2022-10-17T15:58:58.221Z,11.55
2022-10-17T16:01:00.762Z,16.92
2022-10-17T16:03:03.305Z,15.68
2022-10-17T16:05:13.905Z,12.10
2022-10-17T16:07:17.604Z,15.63
2022-10-17T16:09:20.146Z,14.30
2022-10-17T16:11:40.731Z,30.40
2022-10-17T16:13:46.970Z,25.67
2022-10-17T16:15:49.730Z,14.50
2022-10-17T16:17:53.930Z,18.10
2022-10-17T16:19:56.268Z,9.18
2022-10-17T16:22:04.285Z,15.10
2022-10-17T16:24:09.727Z,12.98
2022-10-17T16:26:15.885Z,14.20
2022-10-17T16:28:18.642Z,12.25
2022-10-17T16:32:30.068Z,16.35
2022-10-17T16:34:32.803Z,10.77
2022-10-17T16:36:35.324Z,11.82
2022-10-17T16:38:37.584Z,18.10
2022-10-17T16:40:40.402Z,11.95
2022-10-17T16:42:43.040Z,11.30
2022-10-17T16:44:45.328Z,15.48
2022-10-17T16:46:47.871Z,13.40
2022-10-17T16:48:50.612Z,17.23
2022-10-17T16:50:52.838Z,11.32
2022-10-17T16:52:55.426Z,15.60
2022-10-17T16:54:58.088Z,13.75
2022-10-17T16:57:00.915Z,12.48
2022-10-17T16:59:04.279Z,16.05
2022-10-17T17:01:12.486Z,15.63
2022-10-17T17:03:14.817Z,12.35
2022-10-17T17:05:17.562Z,16.17
2022-10-17T17:07:21.301Z,14.32
2022-10-17T17:09:24.176Z,13.95
2022-10-17T17:11:28.398Z,11.75
2022-10-17T17:13:30.637Z,18.30
2022-10-17T17:15:32.941Z,12.57
2022-10-17T17:17:55.688Z,16.67
2022-10-17T17:19:58.795Z,15.10
2022-10-17T17:22:04.119Z,16.67
2022-10-17T17:24:07.200Z,17.33
2022-10-17T17:26:12.868Z,17.40
2022-10-17T17:28:15.155Z,15.55
2022-10-17T17:30:18.400Z,20.17
2022-10-17T17:32:20.784Z,22.08
2022-10-17T17:34:23.235Z,14.68
2022-10-17T17:36:30.591Z,27.25
2022-10-17T17:38:35.404Z,13.38
2022-10-17T17:40:49.637Z,21.00
2022-10-17T17:42:53.883Z,18.37
2022-10-17T17:44:56.612Z,17.52
2022-10-17T17:46:59.089Z,17.02
2022-10-17T17:49:02.040Z,16.77
2022-10-17T17:51:05.931Z,19.42
2022-10-17T17:53:09.574Z,20.37
2022-10-17T17:55:15.170Z,19.67
2022-10-17T17:57:17.527Z,19.90
2022-10-17T17:59:20.171Z,17.02
2022-10-17T18:01:27.455Z,22.17
2022-10-17T18:03:30.043Z,18.42
2022-10-17T18:05:32.614Z,19.73
2022-10-17T18:07:38.340Z,17.55
2022-10-17T18:09:41.325Z,18.02
2022-10-17T18:11:43.860Z,17.35
2022-10-17T18:13:48.379Z,22.35
2022-10-17T18:15:52.394Z,15.55
2022-10-17T18:17:55.233Z,26.77
2022-10-17T18:19:58.687Z,21.15
2022-10-17T18:22:01.787Z,16.70
2022-10-17T18:24:04.968Z,18.10
2022-10-17T18:26:08.479Z,29.55
2022-10-17T18:28:11.227Z,26.02
2022-10-17T18:30:15.228Z,18.52
2022-10-17T18:32:18.213Z,22.50
2022-10-17T18:34:21.465Z,17.92
2022-10-17T18:36:26.174Z,19.73
2022-10-17T18:38:28.854Z,19.52
2022-10-17T18:40:32.061Z,20.45
2022-10-17T18:42:34.662Z,18.83
2022-10-17T18:44:37.312Z,21.85
2022-10-17T18:46:41.797Z,14.23
2022-10-17T18:48:46.030Z,20.70
2022-10-17T18:50:48.771Z,14.70
2022-10-17T18:52:52.037Z,15.20
2022-10-17T18:54:55.876Z,21.25
2022-10-17T18:56:58.695Z,17.48
2022-10-17T18:59:01.906Z,22.20
2022-10-17T19:01:06.774Z,16.42
2022-10-17T19:03:09.607Z,17.55
2022-10-17T19:05:12.635Z,21.60
2022-10-17T19:07:17.473Z,15.38
2022-10-17T19:09:20.546Z,18.73
2022-10-17T19:11:25.437Z,16.95
2022-10-17T19:13:27.682Z,19.08
2022-10-17T19:15:29.967Z,17.80
2022-10-17T19:17:32.790Z,18.85
2022-10-17T19:19:35.926Z,20.00
2022-10-17T19:21:38.501Z,24.75
2022-10-17T19:23:42.073Z,17.48
2022-10-17T19:25:44.533Z,16.83
2022-10-17T19:27:47.193Z,23.40
2022-10-17T19:29:49.773Z,17.70
2022-10-17T19:31:52.551Z,26.62
2022-10-17T19:33:56.144Z,16.33
2022-10-17T19:36:08.035Z,19.52
2022-10-17T19:38:10.812Z,17.65
2022-10-17T19:40:13.641Z,20.15
2022-10-17T19:42:16.556Z,21.27
2022-10-17T19:44:18.962Z,19.42
2022-10-17T19:46:23.410Z,18.40
2022-10-17T19:48:26.829Z,21.52
2022-10-17T19:50:29.509Z,18.00
2022-10-17T19:52:32.265Z,24.30
2022-10-17T19:54:35.115Z,19.52
2022-10-17T19:56:38.293Z,22.23
2022-10-17T19:58:46.818Z,21.80
2022-10-17T20:00:52.417Z,19.23
2022-10-17T20:02:55.016Z,16.10
2022-10-17T20:05:13.895Z,16.30
2022-10-17T20:07:19.576Z,21.67
2022-10-17T20:09:22.495Z,20.08
2022-10-17T20:11:27.594Z,19.70
2022-10-17T20:13:30.015Z,15.43
2022-10-17T20:15:32.744Z,16.08
2022-10-17T20:19:42.522Z,18.77
2022-10-17T20:21:45.662Z,19.92
2022-10-17T20:23:48.040Z,18.05
2022-10-17T20:26:07.923Z,17.00
2022-10-17T20:28:21.514Z,24.12
2022-10-17T20:30:23.723Z,20.67
2022-10-17T20:32:25.902Z,20.48
2022-10-17T20:34:28.614Z,24.52
2022-10-17T20:36:31.140Z,14.80
2022-10-17T20:38:33.618Z,21.60
2022-10-17T20:40:36.646Z,19.40
2022-10-17T20:42:38.897Z,20.40
2022-10-17T20:44:41.343Z,20.15
2022-10-17T20:46:57.632Z,18.62
2022-10-17T20:49:05.685Z,20.83
2022-10-17T20:51:09.186Z,18.25
2022-10-17T20:53:36.130Z,18.15
2022-10-17T20:55:34.704Z,19.70
2022-10-17T20:57:38.068Z,18.42
2022-10-17T20:59:40.603Z,16.23
2022-10-17T21:01:43.772Z,18.73
2022-10-17T21:03:46.838Z,24.20
2022-10-17T21:05:49.407Z,18.65
2022-10-17T21:07:51.687Z,19.05
2022-10-17T21:09:53.955Z,21.95
2022-10-17T21:11:57.100Z,24.42
2022-10-17T21:14:05.233Z,20.65
2022-10-17T21:16:09.791Z,23.45
2022-10-17T21:18:12.605Z,19.00
2022-10-17T21:20:15.400Z,21.52
2022-10-17T21:22:18.072Z,19.85
2022-10-17T21:24:20.975Z,22.83
2022-10-17T21:26:23.391Z,27.60
2022-10-17T21:28:25.736Z,20.40
2022-10-17T21:30:28.232Z,18.17
2022-10-17T21:32:47.355Z,24.17
2022-10-17T21:34:52.700Z,19.73
2022-10-17T21:36:56.124Z,19.48
2022-10-17T21:38:58.656Z,19.67
2022-10-17T21:41:00.959Z,16.52
2022-10-17T21:43:03.552Z,24.65
2022-10-17T21:45:15.423Z,17.25
2022-10-17T21:47:18.272Z,20.40
2022-10-17T21:49:23.080Z,20.17
